Time;durP1;ratioP1;P1;durP2;ratioP2;P2;SDS_P1;SDS_P2;PMS_P1;PMS_P2;Temp;Humidity;BMP_temperature;BMP_pressure;BME280_temperature;BME280_humidity;BME280_pressure;Samples;Min_cycle;Max_cycle;Signal;HPM_P1;HPM_P2
2021/08/18 00:00:30;;;;;;;3.30;2.50;;;;;;;18.52;70.44;101619.03;10532972;28;20048;-82
2021/08/18 00:05:31;;;;;;;3.20;2.13;;;;;;;18.51;70.42;101633.81;10536104;28;20028;-82
2021/08/18 00:10:31;;;;;;;3.47;2.70;;;;;;;18.40;70.56;101620.88;10514447;28;20461;-82
2021/08/18 00:15:32;;;;;;;13.15;2.58;;;;;;;18.43;70.11;101625.91;10539752;28;20047;-82
2021/08/18 00:20:32;;;;;;;3.90;2.65;;;;;;;18.55;70.14;101641.34;10539281;28;20067;-82
2021/08/18 00:25:33;;;;;;;4.38;2.22;;;;;;;18.55;70.27;101627.63;10526151;28;20134;-82
2021/08/18 00:30:34;;;;;;;2.25;1.92;;;;;;;18.54;70.24;101628.72;10527969;28;20050;-82
2021/08/18 00:35:34;;;;;;;2.45;2.00;;;;;;;18.57;70.11;101632.91;10546001;28;20036;-82
2021/08/18 00:40:34;;;;;;;4.07;2.78;;;;;;;18.47;70.33;101629.84;10545374;28;20038;-82
2021/08/18 00:45:35;;;;;;;1.80;1.17;;;;;;;18.55;70.51;101633.13;10510107;28;20062;-82
2021/08/18 00:50:35;;;;;;;4.97;2.00;;;;;;;18.57;70.00;101630.97;10509899;28;20387;-82
2021/08/18 00:55:36;;;;;;;1.50;1.42;;;;;;;18.43;70.08;101609.44;10544825;28;20523;-82
2021/08/18 01:00:36;;;;;;;2.25;1.52;;;;;;;18.27;70.31;101592.56;10545082;28;20036;-82
2021/08/18 01:05:37;;;;;;;3.90;2.53;;;;;;;18.52;70.29;101622.59;10526234;28;20063;-82
2021/08/18 01:10:37;;;;;;;4.95;2.33;;;;;;;18.50;70.51;101613.75;10543929;28;20112;-82
2021/08/18 01:15:38;;;;;;;5.43;2.15;;;;;;;18.31;69.88;101587.47;10543638;28;20032;-82
2021/08/18 01:20:40;;;;;;;5.72;1.92;;;;;;;18.06;69.97;101539.09;10520053;28;20119;-82
2021/08/18 01:25:42;;;;;;;1.92;1.83;;;;;;;18.61;69.95;101628.63;10533203;28;20540;-82
2021/08/18 01:30:44;;;;;;;3.42;2.80;;;;;;;18.61;70.10;101627.78;10533560;28;20045;-82
2021/08/18 01:35:46;;;;;;;2.88;2.33;;;;;;;18.56;70.06;101622.97;10532633;28;20440;-82
2021/08/18 01:40:51;;;;;;;3.50;1.83;;;;;;;18.57;69.97;101627.41;10532423;28;20040;-82
2021/08/18 01:45:51;;;;;;;3.70;2.17;;;;;;;18.55;69.91;101613.91;10532262;28;20107;-82
2021/08/18 01:50:53;;;;;;;3.22;1.75;;;;;;;18.62;69.67;101629.44;10533377;28;20103;-83
2021/08/18 01:55:55;;;;;;;2.00;1.23;;;;;;;18.57;69.82;101621.94;10534873;28;20040;-82
2021/08/18 02:00:55;;;;;;;4.03;3.13;;;;;;;18.58;69.81;101623.59;10516081;28;20043;-82
2021/08/18 02:05:56;;;;;;;1.75;1.65;;;;;;;18.53;69.57;101607.81;10516353;28;20028;-82
2021/08/18 02:10:57;;;;;;;3.25;2.38;;;;;;;18.52;69.79;101616.28;10533807;28;20032;-82
2021/08/18 02:15:57;;;;;;;2.75;2.15;;;;;;;18.28;70.00;101569.59;10513564;28;20064;-82
2021/08/18 02:20:58;;;;;;;5.53;2.03;;;;;;;18.61;69.99;101612.16;10533059;28;20191;-82
2021/08/18 02:25:58;;;;;;;4.60;1.88;;;;;;;18.59;69.82;101617.03;10536072;28;20164;-82
2021/08/18 02:30:58;;;;;;;4.97;1.80;;;;;;;18.63;70.04;101614.66;10534215;28;20456;-82
2021/08/18 02:35:59;;;;;;;3.90;2.47;;;;;;;18.42;69.84;101581.19;10533474;28;20143;-82
2021/08/18 02:40:59;;;;;;;2.20;2.03;;;;;;;18.65;69.95;101615.25;10532993;28;20348;-82
2021/08/18 02:46:00;;;;;;;7.03;2.85;;;;;;;18.62;70.24;101615.72;10531219;28;20119;-82
2021/08/18 02:51:00;;;;;;;1.95;1.83;;;;;;;18.61;70.27;101606.66;10512111;28;20492;-83
2021/08/18 02:56:01;;;;;;;5.00;2.80;;;;;;;18.69;69.85;101603.56;10533012;28;20267;-82
2021/08/18 03:01:01;;;;;;;6.32;3.28;;;;;;;18.66;70.32;101609.53;10514945;28;20489;-82
2021/08/18 03:06:01;;;;;;;6.93;2.03;;;;;;;18.44;70.07;101575.47;10530996;28;20159;-82
2021/08/18 03:11:02;;;;;;;2.90;2.20;;;;;;;18.69;69.92;101609.06;10530107;28;20107;-82
2021/08/18 03:16:02;;;;;;;5.00;2.70;;;;;;;18.69;70.01;101616.47;10510470;28;20043;-82
2021/08/18 03:21:03;;;;;;;3.50;2.80;;;;;;;18.75;70.04;101608.16;10511173;28;20036;-83
2021/08/18 03:26:03;;;;;;;10.40;3.15;;;;;;;18.65;69.92;101594.16;10510580;28;20398;-81
2021/08/18 03:31:04;;;;;;;2.80;2.22;;;;;;;18.69;69.97;101597.25;10510962;28;20047;-82
2021/08/18 03:36:05;;;;;;;8.05;2.47;;;;;;;18.69;69.98;101600.81;10529030;28;20047;-82
2021/08/18 03:41:05;;;;;;;3.88;2.25;;;;;;;18.68;69.95;101596.41;10510382;28;20449;-82
2021/08/18 03:46:05;;;;;;;6.03;1.92;;;;;;;18.73;69.84;101602.09;10512557;28;20531;-82
2021/08/18 03:51:06;;;;;;;5.63;2.70;;;;;;;18.76;69.88;101601.63;10519106;28;20105;-82
2021/08/18 03:56:06;;;;;;;2.53;2.25;;;;;;;18.65;69.72;101596.88;10518233;28;20438;-82
2021/08/18 04:01:07;;;;;;;1.85;1.73;;;;;;;18.75;69.91;101608.16;10518070;28;20032;-82
2021/08/18 04:06:07;;;;;;;1.70;1.60;;;;;;;18.79;69.40;101614.88;10536459;28;20044;-82
2021/08/18 04:11:09;;;;;;;3.20;1.33;;;;;;;18.80;69.56;101599.22;10536407;28;20048;-82
2021/08/18 04:16:09;;;;;;;2.53;2.10;;;;;;;18.73;69.82;101580.13;10535568;28;20036;-82
2021/08/18 04:21:11;;;;;;;3.55;3.25;;;;;;;18.77;69.68;101599.72;10519717;28;20075;-82
2021/08/18 04:26:11;;;;;;;2.90;2.60;;;;;;;18.78;69.78;101601.38;10540638;28;20060;-85
2021/08/18 04:31:12;;;;;;;4.85;2.83;;;;;;;18.76;70.08;101601.63;10502714;28;20119;-83
2021/08/18 04:36:12;;;;;;;8.48;2.30;;;;;;;18.82;69.80;101602.56;10459523;28;20067;-82
2021/08/18 04:41:13;;;;;;;2.25;2.15;;;;;;;18.85;69.91;101595.78;10539068;28;20046;-82
2021/08/18 04:46:13;;;;;;;7.30;3.55;;;;;;;18.84;69.73;101594.94;10503543;28;20056;-82
2021/08/18 04:51:14;;;;;;;2.22;2.03;;;;;;;18.83;69.46;101587.78;10539289;28;20047;-81
2021/08/18 04:56:14;;;;;;;10.95;3.55;;;;;;;18.85;69.99;101591.13;10538877;28;20043;-82
2021/08/18 05:01:14;;;;;;;5.28;3.20;;;;;;;18.89;70.00;101596.97;10538678;28;20568;-81
2021/08/18 05:06:15;;;;;;;7.15;4.22;;;;;;;18.93;70.13;101589.94;10520661;28;20047;-82
2021/08/18 05:11:15;;;;;;;6.63;2.40;;;;;;;18.79;70.22;101565.47;10521519;28;20070;-82
2021/08/18 05:16:16;;;;;;;4.40;4.00;;;;;;;19.01;70.22;101582.19;10539372;28;20059;-82
2021/08/18 05:21:16;;;;;;;4.28;3.40;;;;;;;19.01;69.81;101584.94;10521392;28;20135;-82
2021/08/18 05:26:16;;;;;;;4.35;3.95;;;;;;;19.03;69.91;101579.22;10539620;28;20060;-82
2021/08/18 05:31:17;;;;;;;7.72;4.47;;;;;;;19.07;70.23;101572.16;10539707;28;20047;-82
2021/08/18 05:36:18;;;;;;;6.07;2.90;;;;;;;19.14;70.05;101563.81;10503855;28;20123;-82
2021/08/18 05:41:18;;;;;;;2.65;2.55;;;;;;;19.18;70.04;101582.34;10520410;28;20113;-82
2021/08/18 05:46:18;;;;;;;4.07;3.58;;;;;;;19.15;69.93;101569.09;10519172;28;20119;-82
2021/08/18 05:51:19;;;;;;;6.15;3.10;;;;;;;19.31;69.93;101580.44;10519783;28;20031;-82
2021/08/18 05:56:19;;;;;;;3.25;2.95;;;;;;;19.15;69.93;101547.13;10537557;28;20498;-82
2021/08/18 06:01:20;;;;;;;3.70;3.10;;;;;;;19.37;69.98;101577.56;10536991;28;20078;-82
2021/08/18 06:06:20;;;;;;;4.00;3.70;;;;;;;19.43;69.91;101573.00;10537057;28;20052;-82
2021/08/18 06:11:21;;;;;;;3.65;3.40;;;;;;;19.51;69.88;101583.63;10518650;28;20467;-82
2021/08/18 06:16:21;;;;;;;4.43;3.55;;;;;;;19.58;69.76;101584.34;10517977;28;20063;-82
2021/08/18 06:21:21;;;;;;;6.20;3.95;;;;;;;19.59;69.77;101583.28;10535640;28;20064;-82
2021/08/18 06:26:22;;;;;;;6.97;4.47;;;;;;;19.45;69.42;101554.38;10535750;28;20090;-82
2021/08/18 06:31:22;;;;;;;7.43;3.83;;;;;;;19.72;69.86;101583.03;10535672;28;20463;-82
2021/08/18 06:36:23;;;;;;;28.17;5.97;;;;;;;19.87;69.57;101590.75;10535302;28;20057;-82
2021/08/18 06:41:23;;;;;;;4.70;4.28;;;;;;;19.97;69.54;101587.38;10516829;28;20040;-83
2021/08/18 06:46:23;;;;;;;4.20;3.83;;;;;;;20.07;69.34;101589.50;10514274;28;20052;-82
2021/08/18 06:51:24;;;;;;;5.75;4.75;;;;;;;20.09;69.23;101590.09;10511934;28;20135;-83
2021/08/18 06:56:24;;;;;;;6.60;3.95;;;;;;;20.18;69.18;101594.16;10511835;28;20123;-83
2021/08/18 07:01:25;;;;;;;8.18;5.72;;;;;;;20.24;69.49;101592.34;10529931;28;20042;-83
2021/08/18 07:06:25;;;;;;;5.78;4.88;;;;;;;20.36;69.00;101587.63;10530649;28;20036;-83
2021/08/18 07:11:26;;;;;;;4.22;3.92;;;;;;;20.39;68.76;101582.47;10529824;28;20107;-83
2021/08/18 07:16:27;;;;;;;10.55;5.45;;;;;;;20.49;68.62;101590.06;10511631;28;20027;-83
2021/08/18 07:21:28;;;;;;;7.50;4.95;;;;;;;20.63;68.21;101577.69;10514011;28;20031;-84
2021/08/18 07:26:28;;;;;;;4.82;4.43;;;;;;;20.75;68.34;101580.38;10534736;28;20066;-84
2021/08/18 07:31:29;;;;;;;13.93;5.43;;;;;;;20.81;68.09;101570.31;10535725;28;20352;-84
2021/08/18 07:36:29;;;;;;;8.77;6.30;;;;;;;20.79;68.22;101558.69;10535252;28;20032;-84
2021/08/18 07:41:30;;;;;;;6.07;5.57;;;;;;;20.85;68.18;101571.47;10514317;28;20476;-84
2021/08/18 07:46:30;;;;;;;6.65;6.00;;;;;;;20.96;67.25;101556.75;10498924;28;20383;-84
2021/08/18 07:51:31;;;;;;;8.00;5.15;;;;;;;21.19;67.40;101576.97;10533271;28;20479;-84
2021/08/18 07:56:34;;;;;;;10.43;5.45;;;;;;;21.20;66.80;101567.59;10514008;28;20490;-83
2021/08/18 08:01:34;;;;;;;6.07;5.53;;;;;;;21.08;66.97;101565.78;10530373;28;20044;-83
2021/08/18 08:06:35;;;;;;;9.60;5.68;;;;;;;20.82;67.41;101567.28;10530424;28;20475;-83
2021/08/18 08:11:35;;;;;;;7.28;6.38;;;;;;;20.75;67.82;101576.78;10532264;28;20039;-82
2021/08/18 08:16:36;;;;;;;12.45;7.70;;;;;;;20.50;68.31;101583.47;10530923;28;20184;-83
2021/08/18 08:21:37;;;;;;;9.73;7.43;;;;;;;20.33;68.85;101571.63;10529733;28;20429;-83
2021/08/18 08:26:38;;;;;;;8.82;7.22;;;;;;;20.45;69.11;101588.88;10530817;28;20060;-83
2021/08/18 08:31:39;;;;;;;16.65;6.82;;;;;;;20.46;68.77;101560.31;10530400;28;20508;-83
2021/08/18 08:36:40;;;;;;;9.35;7.60;;;;;;;20.71;68.70;101603.13;10540885;28;20481;-83
2021/08/18 08:41:43;;;;;;;20.40;7.13;;;;;;;20.32;68.27;101532.25;10522285;28;20380;-83
2021/08/18 08:46:48;;;;;;;9.48;6.90;;;;;;;20.71;68.40;101598.47;10540398;28;20028;-83
2021/08/18 08:51:50;;;;;;;10.45;7.38;;;;;;;20.53;68.24;101569.25;10538905;28;20047;-83
2021/08/18 08:56:51;;;;;;;6.65;5.57;;;;;;;20.90;67.18;101583.41;10520932;28;20231;-83
2021/08/18 09:02:03;;;;;;;12.68;7.15;;;;;;;20.93;68.17;101545.41;10520820;28;20506;-83
2021/08/18 09:07:10;;;;;;;16.02;5.88;;;;;;;21.13;67.25;101581.56;10539614;28;20039;-83
2021/08/18 09:12:13;;;;;;;7.80;5.07;;;;;;;21.27;65.38;101590.31;10538391;28;20089;-83
2021/08/18 09:17:33;;;;;;;8.50;5.75;;;;;;;20.99;66.66;101583.78;10500984;28;20036;-83
2021/08/18 09:22:37;;;;;;;9.45;4.28;;;;;;;21.04;67.18;101585.81;10516544;28;20084;-83
2021/08/18 09:27:39;;;;;;;6.40;4.75;;;;;;;21.05;65.63;101555.25;10517665;28;20039;-83
2021/08/18 09:32:39;;;;;;;7.07;5.30;;;;;;;21.31;65.68;101583.19;10502432;28;20066;-83
2021/08/18 09:37:42;;;;;;;5.72;3.95;;;;;;;21.41;65.19;101582.53;10501984;28;20074;-83
2021/08/18 09:42:42;;;;;;;11.30;6.00;;;;;;;21.39;64.13;101546.97;10535568;28;20036;-82
2021/08/18 09:48:12;;;;;;;6.65;5.45;;;;;;;21.11;65.92;101526.72;10517080;28;20356;-83
2021/08/18 09:53:20;;;;;;;6.03;4.38;;;;;;;21.80;65.59;101572.34;10538455;28;20050;-82
2021/08/18 09:58:22;;;;;;;4.22;3.72;;;;;;;22.17;63.93;101564.25;10537745;28;20032;-83
2021/08/18 10:03:22;;;;;;;5.65;3.55;;;;;;;22.69;62.52;101571.13;10539008;28;20040;-83
2021/08/18 10:08:23;;;;;;;22.42;6.18;;;;;;;22.77;61.95;101564.28;10522554;28;20111;-84
2021/08/18 10:13:23;;;;;;;10.93;5.28;;;;;;;22.64;62.94;101569.16;10522577;28;20039;-83
2021/08/18 10:18:39;;;;;;;5.03;3.92;;;;;;;22.37;61.69;101555.38;10521627;28;20142;-86
2021/08/18 10:23:43;;;;;;;4.32;3.85;;;;;;;23.03;60.30;101570.88;10521272;28;20051;-86
2021/08/18 10:29:16;;;;;;;17.60;5.75;;;;;;;23.32;61.43;101525.19;10539454;28;20035;-85
2021/08/18 10:34:22;;;;;;;4.20;3.90;;;;;;;24.83;59.09;101514.00;10538105;28;20074;-86
2021/08/18 10:39:22;;;;;;;7.65;3.20;;;;;;;24.89;56.95;101556.41;10539245;28;20020;-87
2021/08/18 10:44:41;;;;;;;5.47;3.80;;;;;;;24.46;58.07;101557.75;10540612;28;20382;-86
2021/08/18 10:49:46;;;;;;;7.68;4.38;;;;;;;24.14;54.95;101553.22;10520811;28;20088;-85
2021/08/18 10:54:47;;;;;;;4.07;3.65;;;;;;;24.20;55.92;101540.25;10521908;28;20101;-85
2021/08/18 10:59:47;;;;;;;3.15;2.92;;;;;;;24.21;56.78;101556.56;10539698;28;20097;-86
2021/08/18 11:04:49;;;;;;;6.28;3.40;;;;;;;23.71;57.81;101512.97;10537895;28;20116;-86
2021/08/18 11:09:49;;;;;;;29.90;9.50;;;;;;;23.97;56.53;101556.22;10518456;28;20069;-85
2021/08/18 11:14:49;;;;;;;3.40;3.07;;;;;;;25.98;54.87;101505.94;10517615;28;20089;-85
2021/08/18 11:19:51;;;;;;;5.25;2.97;;;;;;;26.30;51.09;101538.75;10534251;28;20277;-86
2021/08/18 11:24:51;;;;;;;3.45;3.03;;;;;;;25.63;51.34;101527.16;10536201;28;20402;-85
2021/08/18 11:29:52;;;;;;;22.90;8.90;;;;;;;25.78;50.88;101536.50;10540036;28;20487;-85
2021/08/18 11:34:53;;;;;;;3.97;3.45;;;;;;;25.47;51.73;101520.00;10521204;28;20020;-86
2021/08/18 11:39:57;;;;;;;4.85;3.33;;;;;;;26.13;51.67;101510.53;10520972;28;20387;-85
2021/08/18 11:45:04;;;;;;;3.92;3.53;;;;;;;25.38;53.13;101546.66;10520695;28;20028;-85
2021/08/18 11:50:05;;;;;;;6.25;3.50;;;;;;;24.23;54.62;101518.38;10502577;28;20100;-85
2021/08/18 11:55:06;;;;;;;14.52;8.38;;;;;;;23.98;53.19;101521.09;10504950;28;20076;-85
2021/08/18 12:00:07;;;;;;;10.60;2.97;;;;;;;24.07;53.93;101552.66;10506017;28;20063;-85
2021/08/18 12:05:09;;;;;;;7.57;3.50;;;;;;;23.83;53.91;101528.22;10520788;28;20044;-85
2021/08/18 12:10:42;;;;;;;5.65;3.78;;;;;;;23.54;55.99;101536.09;10511089;28;20035;-85
2021/08/18 12:15:46;;;;;;;3.75;3.40;;;;;;;22.98;55.56;101475.00;10520848;28;20159;-85
2021/08/18 12:20:47;;;;;;;2.92;2.67;;;;;;;23.27;57.01;101536.25;10510399;28;20059;-85
2021/08/18 12:25:47;;;;;;;26.13;6.68;;;;;;;22.85;55.65;101468.00;10526938;28;20164;-85
2021/08/18 12:30:58;;;;;;;6.28;3.08;;;;;;;23.00;56.65;101486.59;10547975;28;20129;-85
2021/08/18 12:36:11;;;;;;;26.02;4.85;;;;;;;23.24;56.41;101531.25;10547300;28;20153;-85
2021/08/18 12:41:11;;;;;;;9.63;4.18;;;;;;;23.48;56.40;101531.63;10509955;28;20105;-85
2021/08/18 12:46:22;;;;;;;3.92;3.45;;;;;;;23.99;58.14;101512.50;10509130;28;20040;-85
2021/08/18 12:51:22;;;;;;;9.40;3.00;;;;;;;24.72;55.07;101528.97;10526280;28;20056;-84
2021/08/18 12:56:23;;;;;;;5.50;3.13;;;;;;;24.70;54.30;101533.97;10547996;28;20028;-85
2021/08/18 13:01:23;;;;;;;2.38;2.28;;;;;;;24.69;54.06;101540.59;10525319;28;20121;-85
2021/08/18 13:06:25;;;;;;;2.72;2.55;;;;;;;23.83;53.43;101535.69;10520947;28;20422;-85
2021/08/18 13:11:26;;;;;;;9.27;3.08;;;;;;;23.74;54.36;101532.66;10505173;28;20129;-85
2021/08/18 13:16:27;;;;;;;3.97;3.42;;;;;;;23.09;56.38;101533.91;10554743;28;20032;-84
2021/08/18 13:21:28;;;;;;;3.40;2.63;;;;;;;22.61;55.37;101532.94;10522176;28;20066;-85
2021/08/18 13:26:28;;;;;;;6.50;3.05;;;;;;;22.08;57.66;101537.34;10521392;28;20091;-85
2021/08/18 13:31:31;;;;;;;2.30;2.10;;;;;;;21.74;59.04;101513.53;10501590;28;20122;-85
2021/08/18 13:36:32;;;;;;;2.67;2.47;;;;;;;21.76;59.63;101535.31;10518214;28;20105;-85
2021/08/18 13:41:33;;;;;;;6.88;3.35;;;;;;;22.14;59.68;101533.56;10514993;28;20528;-84
2021/08/18 13:46:34;;;;;;;2.95;2.28;;;;;;;21.55;59.31;101415.75;10514743;28;20040;-84
2021/08/18 13:51:35;;;;;;;3.85;2.22;;;;;;;22.50;59.11;101521.81;10534772;28;20043;-85
2021/08/18 13:56:36;;;;;;;3.95;1.90;;;;;;;22.50;58.32;101497.00;10534386;28;20040;-85
2021/08/18 14:01:37;;;;;;;3.70;2.17;;;;;;;22.71;58.24;101528.34;10515379;28;20169;-85
2021/08/18 14:06:38;;;;;;;2.85;2.30;;;;;;;22.87;55.32;101520.19;10499080;28;20485;-84
2021/08/18 14:11:40;;;;;;;2.05;1.95;;;;;;;23.00;56.10;101524.44;10515944;28;20471;-84
2021/08/18 14:16:41;;;;;;;3.38;1.92;;;;;;;23.00;56.36;101507.88;10533643;28;20051;-85
2021/08/18 14:21:41;;;;;;;1.88;1.70;;;;;;;22.95;54.97;101516.97;10533753;28;20428;-85
2021/08/18 14:26:42;;;;;;;3.10;2.70;;;;;;;23.05;56.39;101507.91;10534986;28;20146;-85
2021/08/18 14:31:42;;;;;;;4.30;1.95;;;;;;;23.18;56.32;101511.03;10496468;28;20067;-84
2021/08/18 14:36:43;;;;;;;3.40;1.83;;;;;;;23.13;54.52;101512.94;10514887;28;20041;-84
2021/08/18 14:41:43;;;;;;;2.78;2.45;;;;;;;23.02;53.81;101508.44;10513848;28;20123;-84
2021/08/18 14:46:47;;;;;;;3.53;3.15;;;;;;;22.97;56.81;101510.09;10511138;28;20390;-84
2021/08/18 14:51:47;;;;;;;2.75;2.55;;;;;;;23.01;55.46;101521.44;10496055;28;20416;-85
2021/08/18 14:56:48;;;;;;;2.95;2.67;;;;;;;22.54;55.36;101477.13;10529972;28;20050;-84
2021/08/18 15:01:50;;;;;;;5.70;2.97;;;;;;;22.60;56.06;101492.66;10512287;28;20413;-85
2021/08/18 15:06:50;;;;;;;10.05;2.78;;;;;;;22.62;55.31;101491.28;10511741;28;20111;-84
2021/08/18 15:11:51;;;;;;;3.97;3.08;;;;;;;22.70;55.26;101499.06;10511073;28;20043;-85
2021/08/18 15:16:51;;;;;;;4.93;3.15;;;;;;;22.61;56.65;101494.31;10512881;28;20040;-84
2021/08/18 15:21:52;;;;;;;2.47;2.28;;;;;;;22.21;57.70;101468.84;10500238;28;20118;-85
2021/08/18 15:26:53;;;;;;;6.78;3.22;;;;;;;22.09;57.38;101486.63;10500388;28;20040;-85
2021/08/18 15:31:58;;;;;;;4.57;3.13;;;;;;;21.75;58.28;101460.06;10498348;28;20161;-85
2021/08/18 15:36:59;;;;;;;7.95;4.47;;;;;;;21.83;58.70;101469.81;10515048;28;20111;-84
2021/08/18 15:42:02;;;;;;;6.30;3.80;;;;;;;21.85;59.65;101483.31;10516978;28;20039;-85
2021/08/18 15:47:03;;;;;;;3.88;3.38;;;;;;;21.68;59.19;101475.97;10505753;28;20107;-85
2021/08/18 15:52:08;;;;;;;3.45;3.20;;;;;;;21.52;59.78;101472.22;10538431;28;20048;-85
2021/08/18 15:57:15;;;;;;;6.32;4.25;;;;;;;21.18;62.80;101470.63;10507260;28;20123;-84
2021/08/18 16:02:15;;;;;;;7.97;4.35;;;;;;;21.17;61.74;101478.06;10506079;28;20032;-85
2021/08/18 16:07:17;;;;;;;5.43;4.95;;;;;;;21.12;62.04;101453.19;10505853;28;20143;-84
2021/08/18 16:12:18;;;;;;;6.30;4.85;;;;;;;21.26;61.62;101451.75;10505702;28;20059;-85
2021/08/18 16:17:19;;;;;;;10.65;5.50;;;;;;;21.30;61.52;101441.03;10540075;28;20237;-84
2021/08/18 16:22:19;;;;;;;8.52;4.13;;;;;;;21.26;60.93;101415.09;10505356;28;20028;-85
2021/08/18 16:27:22;;;;;;;4.53;3.83;;;;;;;21.63;60.58;101430.97;10541006;28;20119;-85
2021/08/18 16:32:25;;;;;;;5.85;4.20;;;;;;;21.59;60.46;101441.69;10508298;28;20043;-84
2021/08/18 16:37:26;;;;;;;7.38;4.05;;;;;;;21.49;60.92;101427.81;10506832;28;20048;-85
2021/08/18 16:42:27;;;;;;;4.60;4.13;;;;;;;21.25;61.52;101417.03;10521265;28;20043;-84
2021/08/18 16:47:30;;;;;;;5.13;3.83;;;;;;;21.33;61.22;101424.81;10519127;28;20474;-83
2021/08/18 16:52:31;;;;;;;10.55;4.72;;;;;;;21.11;61.30;101422.06;10502458;28;20039;-84
2021/08/18 16:57:32;;;;;;;14.57;4.10;;;;;;;21.23;61.46;101412.84;10519037;28;20472;-84
2021/08/18 17:02:34;;;;;;;8.00;5.25;;;;;;;20.97;61.40;101364.88;10486689;28;20387;-84
2021/08/18 17:07:35;;;;;;;9.55;6.70;;;;;;;21.27;61.66;101403.81;10503951;28;20536;-84
2021/08/18 17:12:36;;;;;;;10.15;5.82;;;;;;;21.10;62.35;101398.38;10519888;28;20119;-84
2021/08/18 17:17:36;;;;;;;7.80;4.57;;;;;;;20.99;63.15;101391.06;10519585;28;20043;-84
2021/08/18 17:22:37;;;;;;;8.02;4.82;;;;;;;20.91;63.95;101386.00;10537901;28;20470;-84
2021/08/18 17:27:39;;;;;;;11.43;5.63;;;;;;;20.82;64.13;101380.09;10537557;28;20043;-84
2021/08/18 17:32:40;;;;;;;12.20;5.25;;;;;;;20.76;63.96;101370.09;10518662;28;20469;-84
2021/08/18 17:37:40;;;;;;;7.72;4.57;;;;;;;20.81;65.75;101388.63;10517112;28;20135;-85
2021/08/18 17:42:41;;;;;;;6.22;4.97;;;;;;;20.83;64.72;101389.19;10534015;28;20533;-84
2021/08/18 17:47:41;;;;;;;5.93;5.32;;;;;;;20.84;64.69;101382.63;10513163;28;20071;-85
2021/08/18 17:52:42;;;;;;;5.97;5.13;;;;;;;20.73;64.46;101376.13;10514643;28;20117;-84
2021/08/18 17:57:45;;;;;;;11.75;6.97;;;;;;;20.95;63.47;101376.13;10531955;28;20070;-84
2021/08/18 18:02:45;;;;;;;11.07;5.22;;;;;;;20.94;63.83;101384.66;10512990;28;20028;-85
2021/08/18 18:07:46;;;;;;;12.40;5.40;;;;;;;20.88;64.32;101379.09;10512532;28;20052;-84
2021/08/18 18:12:47;;;;;;;7.68;5.75;;;;;;;20.78;64.00;101375.38;10512942;28;20039;-85
2021/08/18 18:17:47;;;;;;;5.65;4.50;;;;;;;20.86;63.97;101375.75;10511721;28;20052;-85
2021/08/18 18:22:49;;;;;;;7.25;5.75;;;;;;;20.99;63.54;101373.69;10495233;28;20060;-85
2021/08/18 18:27:49;;;;;;;5.78;4.32;;;;;;;21.06;63.59;101375.19;10512768;28;20059;-84
2021/08/18 18:32:50;;;;;;;8.40;4.30;;;;;;;20.91;64.17;101372.25;10512560;28;20115;-85
2021/08/18 18:37:53;;;;;;;4.28;3.85;;;;;;;20.75;63.73;101367.63;10512779;28;20056;-85
2021/08/18 18:42:53;;;;;;;6.55;4.07;;;;;;;20.55;64.37;101380.00;10481855;28;20484;-84
2021/08/18 18:47:54;;;;;;;9.48;4.20;;;;;;;20.49;63.99;101347.97;10512475;28;20111;-85
2021/08/18 18:52:54;;;;;;;3.33;2.70;;;;;;;20.30;63.89;101343.81;10511861;28;20118;-85
2021/08/18 18:57:55;;;;;;;4.38;3.97;;;;;;;20.56;63.67;101380.84;10529585;28;20035;-85
2021/08/18 19:02:55;;;;;;;4.43;3.55;;;;;;;20.38;63.12;101359.88;10494670;28;20360;-85
2021/08/18 19:07:56;;;;;;;4.63;3.92;;;;;;;20.45;62.98;101368.78;10495322;28;20040;-84
2021/08/18 19:13:03;;;;;;;13.27;4.57;;;;;;;20.54;63.33;101377.47;10529164;28;20505;-85
2021/08/18 19:18:04;;;;;;;4.07;3.67;;;;;;;20.52;62.94;101375.00;10509983;28;20043;-85
2021/08/18 19:23:06;;;;;;;10.20;3.83;;;;;;;20.40;62.97;101365.97;10477783;28;20056;-85
2021/08/18 19:28:07;;;;;;;10.68;4.80;;;;;;;20.45;62.66;101366.03;10494421;28;20104;-85
2021/08/18 19:33:08;;;;;;;6.90;3.97;;;;;;;20.54;62.60;101394.81;10530081;28;20032;-84
2021/08/18 19:38:10;;;;;;;3.33;3.03;;;;;;;20.37;62.26;101366.47;10511328;28;20036;-87
2021/08/18 19:43:11;;;;;;;6.68;3.95;;;;;;;20.43;62.75;101384.72;10511599;28;20459;-86
2021/08/18 19:48:11;;;;;;;5.28;3.10;;;;;;;20.20;63.24;101361.81;10477293;28;20135;-86
2021/08/18 19:53:12;;;;;;;7.10;2.92;;;;;;;20.43;62.73;101390.22;10493270;28;20114;-86
2021/08/18 19:58:13;;;;;;;4.85;3.25;;;;;;;20.44;62.53;101397.38;10434232;28;20070;-85
2021/08/18 20:03:16;;;;;;;3.60;3.17;;;;;;;20.38;62.98;101390.13;10460685;28;20117;-85
2021/08/18 20:08:16;;;;;;;8.07;4.38;;;;;;;19.60;62.79;101263.50;10493850;28;20024;-85
2021/08/18 20:13:17;;;;;;;8.63;3.78;;;;;;;20.34;63.25;101394.47;10509536;28;20040;-85
2021/08/18 20:18:18;;;;;;;7.43;6.57;;;;;;;20.41;63.09;101403.41;10509414;28;20578;-85
2021/08/18 20:23:18;;;;;;;7.65;3.70;;;;;;;19.94;63.24;101334.97;10509550;28;20078;-85
2021/08/18 20:28:20;;;;;;;10.20;4.30;;;;;;;19.93;63.38;101333.31;10530744;28;20108;-85
2021/08/18 20:33:24;;;;;;;2.95;2.75;;;;;;;20.36;63.09;101395.91;10519459;28;20036;-85
2021/08/18 20:38:24;;;;;;;12.02;3.25;;;;;;;20.34;62.89;101380.72;10502254;28;20036;-85
2021/08/18 20:43:36;;;;;;;4.72;3.22;;;;;;;20.19;63.16;101357.38;10518807;28;20058;-84
2021/08/18 20:48:40;;;;;;;4.65;4.15;;;;;;;20.38;62.81;101390.97;10518370;28;20513;-85
2021/08/18 20:53:44;;;;;;;4.72;3.85;;;;;;;20.03;62.85;101360.97;10520225;28;20024;-85
2021/08/18 20:58:44;;;;;;;5.97;4.45;;;;;;;20.19;63.21;101389.56;10485515;28;20032;-85
2021/08/18 21:03:48;;;;;;;4.35;3.72;;;;;;;19.89;63.33;101348.66;10518075;28;20517;-85
2021/08/18 21:08:48;;;;;;;5.95;4.00;;;;;;;19.79;63.09;101343.81;10517533;28;20043;-85
2021/08/18 21:13:49;;;;;;;3.85;3.05;;;;;;;19.98;63.17;101393.91;10518080;28;20464;-85
2021/08/18 21:18:50;;;;;;;4.70;4.25;;;;;;;19.59;63.69;101349.75;10533723;28;20080;-86
2021/08/18 21:23:51;;;;;;;4.10;3.75;;;;;;;19.55;63.37;101340.31;10534165;28;20064;-85
2021/08/18 21:28:53;;;;;;;3.90;3.08;;;;;;;19.67;63.67;101373.28;10500466;28;20459;-85
2021/08/18 21:33:57;;;;;;;4.63;4.22;;;;;;;19.61;63.66;101371.47;10535236;28;20074;-85
2021/08/18 21:38:57;;;;;;;3.97;3.67;;;;;;;19.74;63.94;101385.75;10500362;28;20024;-85
2021/08/18 21:43:58;;;;;;;5.97;4.35;;;;;;;19.78;63.49;101383.34;10484050;28;20040;-85
2021/08/18 21:48:59;;;;;;;8.13;4.20;;;;;;;19.79;63.47;101375.97;10535243;28;20126;-85
2021/08/18 21:54:01;;;;;;;14.95;6.65;;;;;;;19.80;63.42;101391.38;10483599;28;20371;-85
2021/08/18 21:59:02;;;;;;;5.57;5.05;;;;;;;19.62;63.89;101371.25;10485630;28;20036;-86
2021/08/18 22:04:03;;;;;;;6.57;4.05;;;;;;;19.66;63.78;101375.19;10517971;28;20607;-86
2021/08/18 22:09:09;;;;;;;6.25;4.93;;;;;;;19.55;63.94;101381.53;10501484;28;20086;-86
2021/08/18 22:14:13;;;;;;;7.93;5.03;;;;;;;19.28;64.31;101342.84;10503121;28;20059;-86
2021/08/18 22:19:13;;;;;;;6.63;5.40;;;;;;;19.52;64.30;101371.03;10501519;28;20592;-86
2021/08/18 22:24:14;;;;;;;16.10;5.00;;;;;;;19.59;64.21;101358.00;10484467;28;20137;-86
2021/08/18 22:29:18;;;;;;;5.78;4.07;;;;;;;19.36;64.06;101309.47;10501372;28;20050;-86
2021/08/18 22:34:18;;;;;;;10.75;5.85;;;;;;;19.31;64.00;101287.44;10518351;28;20051;-86
2021/08/18 22:39:19;;;;;;;5.30;4.28;;;;;;;19.80;63.95;101370.19;10484481;28;20035;-86
2021/08/18 22:44:19;;;;;;;4.97;4.43;;;;;;;19.86;63.79;101357.41;10534217;28;20520;-86
2021/08/18 22:49:20;;;;;;;13.25;6.15;;;;;;;19.87;63.77;101361.78;10499449;28;20035;-86
2021/08/18 22:54:21;;;;;;;7.43;5.15;;;;;;;19.61;64.19;101319.28;10516174;28;20058;-86
2021/08/18 22:59:21;;;;;;;6.32;4.85;;;;;;;19.60;63.84;101309.38;10484412;28;20038;-86
2021/08/18 23:04:22;;;;;;;9.80;6.10;;;;;;;19.91;63.77;101355.56;10516780;28;20039;-86